createdAt,value
2017-12-05T00:01:54.363Z,87.62
2017-12-05T00:04:22.440Z,87.61
2017-12-05T00:06:49.954Z,87.69
2017-12-05T00:09:17.446Z,87.69
2017-12-05T00:11:44.976Z,87.80
2017-12-05T00:14:12.457Z,87.77
2017-12-05T00:16:39.989Z,87.70
2017-12-05T00:19:07.498Z,87.64
2017-12-05T00:21:35.080Z,87.46
2017-12-05T00:24:02.570Z,87.50
2017-12-05T00:26:30.266Z,87.51
2017-12-05T00:28:57.802Z,87.50
2017-12-05T00:31:25.256Z,87.21
2017-12-05T00:33:52.759Z,87.34
2017-12-05T00:36:20.235Z,87.38
2017-12-05T00:38:47.715Z,87.58
2017-12-05T00:41:15.227Z,87.82
2017-12-05T00:43:42.752Z,87.50
2017-12-05T00:46:10.264Z,87.47
2017-12-05T00:48:37.751Z,87.50
2017-12-05T00:51:05.228Z,87.59
2017-12-05T00:53:32.759Z,87.34
2017-12-05T00:56:00.241Z,87.27
2017-12-05T00:58:27.715Z,87.48
2017-12-05T01:00:55.215Z,87.48
2017-12-05T01:03:22.803Z,87.55
2017-12-05T01:05:50.448Z,87.53
2017-12-05T01:08:18.016Z,87.78
2017-12-05T01:10:45.502Z,88.02
2017-12-05T01:13:13.032Z,88.22
2017-12-05T01:15:40.518Z,88.25
2017-12-05T01:18:08.004Z,88.29
2017-12-05T01:20:35.604Z,88.24
2017-12-05T01:23:03.167Z,88.36
2017-12-05T01:25:30.663Z,88.37
2017-12-05T01:27:58.204Z,88.55
2017-12-05T01:30:25.742Z,88.88
2017-12-05T01:32:53.255Z,89.17
2017-12-05T01:35:20.743Z,89.51
2017-12-05T01:37:48.229Z,89.70
2017-12-05T01:40:15.795Z,89.87
2017-12-05T01:42:43.278Z,89.92
2017-12-05T01:45:10.759Z,90.15
2017-12-05T01:47:38.268Z,90.40
2017-12-05T01:50:05.783Z,90.79
2017-12-05T01:52:33.270Z,91.13
2017-12-05T01:55:00.752Z,91.63
2017-12-05T01:57:28.280Z,91.91
2017-12-05T01:59:55.756Z,92.18
2017-12-05T02:02:23.249Z,92.39
2017-12-05T02:04:50.760Z,92.58
2017-12-05T02:07:18.239Z,92.77
2017-12-05T02:09:45.723Z,92.90
2017-12-05T02:12:13.237Z,93.06
2017-12-05T02:14:40.717Z,93.37
2017-12-05T02:17:08.196Z,93.45
2017-12-05T02:19:35.706Z,93.62
2017-12-05T02:22:03.195Z,93.77
2017-12-05T02:24:30.737Z,93.94
2017-12-05T02:26:58.277Z,94.12
2017-12-05T02:29:25.765Z,94.21
2017-12-05T02:31:53.293Z,94.31
2017-12-05T02:34:20.826Z,94.30
2017-12-05T02:36:48.308Z,94.33
2017-12-05T02:39:15.792Z,94.42
2017-12-05T02:41:43.311Z,94.54
2017-12-05T02:44:10.800Z,94.64
2017-12-05T02:46:38.279Z,94.72
2017-12-05T02:49:05.801Z,94.83
2017-12-05T02:51:33.284Z,94.86
2017-12-05T02:54:00.767Z,94.92
2017-12-05T02:56:28.300Z,94.95
2017-12-05T02:58:55.830Z,95.02
2017-12-05T03:01:23.311Z,95.04
2017-12-05T03:03:50.848Z,95.11
2017-12-05T03:06:18.408Z,95.11
2017-12-05T03:08:45.968Z,95.20
2017-12-05T03:11:13.489Z,95.25
2017-12-05T03:13:40.967Z,95.29
2017-12-05T03:16:08.457Z,95.31
2017-12-05T03:18:35.978Z,95.32
2017-12-05T03:21:03.469Z,95.31
2017-12-05T03:23:30.955Z,95.33
2017-12-05T03:25:58.457Z,95.33
2017-12-05T03:28:25.940Z,95.38
2017-12-05T03:30:53.457Z,95.40
2017-12-05T03:33:20.933Z,95.42
2017-12-05T03:35:48.416Z,95.45
2017-12-05T03:38:15.943Z,95.46
2017-12-05T03:40:43.432Z,95.47
2017-12-05T03:43:10.912Z,95.47
2017-12-05T03:45:38.572Z,95.50
2017-12-05T03:48:06.057Z,95.54
2017-12-05T03:50:33.544Z,95.58
2017-12-05T03:53:01.059Z,95.61
2017-12-05T03:55:28.550Z,95.64
2017-12-05T03:57:56.037Z,95.68
2017-12-05T04:00:23.607Z,95.70
2017-12-05T04:02:51.083Z,95.77
2017-12-05T04:05:18.590Z,95.77
2017-12-05T04:07:46.135Z,95.81
2017-12-05T04:10:13.621Z,95.78
2017-12-05T04:12:41.177Z,95.75
2017-12-05T04:15:08.704Z,95.79
2017-12-05T04:17:36.259Z,95.82
2017-12-05T04:20:03.751Z,95.85
2017-12-05T04:22:31.263Z,95.81
2017-12-05T04:24:58.746Z,95.80
2017-12-05T04:27:26.232Z,95.84
2017-12-05T04:29:53.787Z,95.85
2017-12-05T04:32:21.336Z,95.83
2017-12-05T04:34:48.821Z,95.84
2017-12-05T04:37:16.357Z,95.85
2017-12-05T04:39:43.861Z,95.87
2017-12-05T04:42:11.344Z,95.89
2017-12-05T04:44:38.866Z,95.90
2017-12-05T04:47:06.362Z,95.92
2017-12-05T04:49:33.853Z,95.92
2017-12-05T04:52:01.384Z,95.95
2017-12-05T04:54:28.991Z,95.99
2017-12-05T04:56:56.471Z,95.99
2017-12-05T04:59:24.086Z,96.02
2017-12-05T05:01:52.568Z,96.08
2017-12-05T05:04:20.056Z,96.13
2017-12-05T05:06:47.580Z,96.16
2017-12-05T05:09:15.062Z,96.19
2017-12-05T05:11:42.548Z,96.27
2017-12-05T05:14:10.061Z,96.30
2017-12-05T05:16:37.542Z,96.37
2017-12-05T05:19:05.024Z,96.44
2017-12-05T05:21:32.548Z,96.46
2017-12-05T05:24:00.036Z,96.47
2017-12-05T05:26:27.528Z,96.50
2017-12-05T05:28:55.073Z,96.53
2017-12-05T05:31:22.588Z,96.52
2017-12-05T05:33:50.076Z,96.52
2017-12-05T05:36:17.682Z,96.45
2017-12-05T05:38:45.170Z,96.43
2017-12-05T05:41:12.656Z,96.34
2017-12-05T05:43:40.174Z,96.30
2017-12-05T05:46:07.658Z,96.15
2017-12-05T05:48:35.156Z,96.02
2017-12-05T05:51:02.675Z,95.87
2017-12-05T05:53:30.166Z,95.71
2017-12-05T05:55:57.652Z,95.58
2017-12-05T05:58:25.186Z,95.48
2017-12-05T06:00:52.676Z,95.45
2017-12-05T06:03:20.157Z,95.50
2017-12-05T06:05:47.680Z,95.59
2017-12-05T06:08:15.239Z,95.71
2017-12-05T06:10:42.718Z,95.77
2017-12-05T06:13:10.240Z,95.84
2017-12-05T06:15:37.726Z,95.91
2017-12-05T06:18:05.274Z,95.86
2017-12-05T06:20:32.796Z,95.79
2017-12-05T06:23:00.275Z,95.82
2017-12-05T06:25:27.763Z,95.80
2017-12-05T06:27:55.293Z,95.79
2017-12-05T06:30:22.861Z,95.77
2017-12-05T06:32:50.348Z,95.75
2017-12-05T06:35:17.899Z,95.71
2017-12-05T06:37:45.439Z,95.70
2017-12-05T06:40:13.000Z,95.62
2017-12-05T06:42:40.499Z,95.44
2017-12-05T06:45:07.986Z,95.35
2017-12-05T06:47:35.504Z,95.31
2017-12-05T06:50:02.988Z,95.28
2017-12-05T06:52:30.467Z,95.27
2017-12-05T06:54:57.992Z,95.27
2017-12-05T06:57:25.473Z,95.32
2017-12-05T06:59:52.948Z,95.31
2017-12-05T07:02:20.474Z,95.14
2017-12-05T07:04:47.951Z,95.17
2017-12-05T07:07:15.431Z,95.17
2017-12-05T07:09:42.935Z,95.08
2017-12-05T07:12:10.451Z,94.86
2017-12-05T07:14:37.937Z,94.71
2017-12-05T07:17:05.424Z,94.70
2017-12-05T07:19:32.923Z,94.42
2017-12-05T07:22:00.486Z,94.32
2017-12-05T07:24:28.042Z,94.32
2017-12-05T07:26:55.519Z,94.97
2017-12-05T07:29:23.059Z,94.76
2017-12-05T07:31:50.539Z,93.68
2017-12-05T07:34:18.021Z,92.78
2017-12-05T07:36:45.639Z,92.90
2017-12-05T07:39:13.119Z,93.45
2017-12-05T07:41:40.603Z,93.40
2017-12-05T07:44:08.118Z,93.42
2017-12-05T07:46:35.619Z,93.45
2017-12-05T07:49:03.139Z,93.46
2017-12-05T07:51:30.631Z,93.54
2017-12-05T07:53:58.962Z,93.66
2017-12-05T07:56:26.480Z,93.69
2017-12-05T07:58:53.959Z,93.83
2017-12-05T08:01:21.466Z,93.95
2017-12-05T08:03:48.976Z,94.05
2017-12-05T08:06:16.456Z,93.79
2017-12-05T08:08:44.007Z,93.82
2017-12-05T08:11:11.536Z,94.00
2017-12-05T08:13:39.023Z,93.98
2017-12-05T08:16:06.501Z,94.03
2017-12-05T08:18:34.007Z,93.88
2017-12-05T08:21:01.493Z,94.09
2017-12-05T08:23:28.981Z,93.97
2017-12-05T08:25:56.495Z,94.10
2017-12-05T08:28:23.975Z,94.02
2017-12-05T08:30:51.464Z,93.85
2017-12-05T08:33:18.988Z,93.86
2017-12-05T08:35:46.469Z,93.77
2017-12-05T08:38:13.955Z,93.82
2017-12-05T08:40:41.492Z,93.86
2017-12-05T08:43:08.990Z,93.94
2017-12-05T08:45:36.472Z,93.36
2017-12-05T08:48:03.975Z,93.31
2017-12-05T08:50:31.519Z,92.97
2017-12-05T08:52:59.051Z,93.13
2017-12-05T08:55:26.529Z,93.00
2017-12-05T08:57:54.011Z,93.12
2017-12-05T09:00:21.524Z,93.01
2017-12-05T09:02:49.007Z,92.99
2017-12-05T09:05:16.491Z,93.09
2017-12-05T09:07:43.994Z,92.98
2017-12-05T09:10:11.480Z,92.93
2017-12-05T09:12:38.967Z,92.47
2017-12-05T09:15:06.576Z,92.32
2017-12-05T09:17:34.057Z,92.04
2017-12-05T09:20:01.606Z,92.04
2017-12-05T09:22:29.124Z,91.92
2017-12-05T09:24:56.604Z,91.93
2017-12-05T09:27:24.099Z,91.61
2017-12-05T09:29:51.607Z,91.30
2017-12-05T09:32:19.183Z,91.27
2017-12-05T09:34:46.714Z,91.33
2017-12-05T09:37:14.207Z,91.79
2017-12-05T09:39:41.698Z,91.39
2017-12-05T09:42:09.273Z,91.30
2017-12-05T09:44:36.791Z,91.26
2017-12-05T09:47:04.283Z,91.25
2017-12-05T09:49:31.895Z,90.98
2017-12-05T09:51:59.422Z,89.82
2017-12-05T09:54:26.949Z,90.12
2017-12-05T09:56:54.423Z,90.05
2017-12-05T09:59:21.910Z,90.37
2017-12-05T10:01:49.419Z,90.56
2017-12-05T10:04:17.049Z,90.90
2017-12-05T10:06:44.541Z,91.11
2017-12-05T10:09:12.075Z,90.92
2017-12-05T10:11:39.642Z,91.00
2017-12-05T10:14:07.128Z,91.05
2017-12-05T10:16:34.609Z,90.35
2017-12-05T10:19:02.139Z,89.95
2017-12-05T10:21:29.625Z,89.66
2017-12-05T10:23:57.213Z,89.33
2017-12-05T10:26:24.713Z,89.37
2017-12-05T10:28:52.233Z,89.25
2017-12-05T10:31:19.718Z,89.43
2017-12-05T10:33:47.264Z,90.11
2017-12-05T10:36:14.776Z,91.06
2017-12-05T10:38:42.362Z,91.54
2017-12-05T10:41:09.911Z,91.90
2017-12-05T10:43:37.400Z,91.93
2017-12-05T10:46:04.960Z,92.22
2017-12-05T10:48:32.495Z,91.52
2017-12-05T10:50:59.980Z,91.63
2017-12-05T10:53:27.501Z,91.93
2017-12-05T10:55:54.979Z,91.70
2017-12-05T10:58:22.532Z,91.55
2017-12-05T11:00:50.055Z,91.63
2017-12-05T11:03:17.544Z,91.86
2017-12-05T11:05:45.110Z,91.69
2017-12-05T11:08:12.621Z,91.71
2017-12-05T11:10:40.115Z,91.58
2017-12-05T11:13:07.644Z,91.46
2017-12-05T11:15:35.163Z,91.35
2017-12-05T11:18:02.635Z,91.25
2017-12-05T11:20:30.112Z,91.29
2017-12-05T11:22:57.735Z,91.46
2017-12-05T11:25:25.223Z,91.95
2017-12-05T11:27:52.707Z,91.71
2017-12-05T11:30:20.286Z,91.65
2017-12-05T11:32:47.768Z,91.52
2017-12-05T11:35:15.245Z,91.74
2017-12-05T11:37:42.751Z,91.45
2017-12-05T11:40:10.235Z,91.65
2017-12-05T11:42:37.759Z,91.04
2017-12-05T11:45:05.317Z,91.11
2017-12-05T11:47:32.803Z,91.17
2017-12-05T11:50:00.311Z,90.79
2017-12-05T11:52:27.837Z,90.90
2017-12-05T11:54:55.315Z,91.14
2017-12-05T11:57:22.849Z,90.64
2017-12-05T11:59:50.368Z,90.31
2017-12-05T12:02:17.840Z,90.07
2017-12-05T12:04:45.327Z,90.34
2017-12-05T12:07:12.843Z,90.27
2017-12-05T12:09:40.319Z,90.58
2017-12-05T12:12:07.810Z,89.65
2017-12-05T12:14:35.339Z,89.72
2017-12-05T12:17:02.822Z,90.04
2017-12-05T12:19:30.372Z,89.68
2017-12-05T12:21:57.943Z,90.00
2017-12-05T12:24:25.415Z,89.76
2017-12-05T12:26:52.927Z,89.56
2017-12-05T12:29:20.508Z,89.92
2017-12-05T12:31:48.043Z,89.96
2017-12-05T12:34:15.527Z,89.93
2017-12-05T12:36:43.036Z,89.96
2017-12-05T12:39:10.520Z,90.16
2017-12-05T12:41:38.070Z,90.68
2017-12-05T12:44:05.559Z,90.68
2017-12-05T12:46:33.052Z,91.03
2017-12-05T12:49:00.660Z,91.02
2017-12-05T12:51:28.151Z,90.66
2017-12-05T12:53:55.632Z,91.30
2017-12-05T12:56:23.236Z,92.14
2017-12-05T12:58:50.730Z,92.36
2017-12-05T13:01:18.211Z,92.44
2017-12-05T13:03:45.904Z,91.79
2017-12-05T13:06:13.399Z,91.61
2017-12-05T13:08:40.888Z,91.28
2017-12-05T13:11:08.406Z,90.94
2017-12-05T13:13:35.879Z,90.57
2017-12-05T13:16:03.364Z,91.20
2017-12-05T13:18:30.900Z,91.45
2017-12-05T13:20:58.384Z,91.32
2017-12-05T13:23:25.870Z,91.64
2017-12-05T13:25:53.386Z,91.25
2017-12-05T13:28:20.869Z,91.40
2017-12-05T13:30:48.354Z,91.74
2017-12-05T13:33:15.864Z,91.68
2017-12-05T13:35:43.391Z,91.69
2017-12-05T13:38:10.880Z,91.72
2017-12-05T13:40:38.360Z,91.44
2017-12-05T13:43:05.884Z,91.10
2017-12-05T13:45:33.364Z,90.99
2017-12-05T13:48:00.848Z,91.18
2017-12-05T13:50:28.475Z,91.53
2017-12-05T13:52:56.087Z,92.04
2017-12-05T13:55:23.562Z,92.29
2017-12-05T13:57:51.091Z,92.32
2017-12-05T14:00:18.629Z,92.16
2017-12-05T14:02:46.091Z,91.69
2017-12-05T14:05:13.614Z,91.93
2017-12-05T14:07:41.103Z,92.24
2017-12-05T14:10:08.595Z,91.73
2017-12-05T14:12:36.123Z,91.49
2017-12-05T14:15:03.696Z,91.28
2017-12-05T14:17:31.187Z,91.00
2017-12-05T14:19:58.715Z,90.51
2017-12-05T14:22:26.199Z,90.47
2017-12-05T14:24:53.690Z,90.91
2017-12-05T14:27:21.216Z,90.83
2017-12-05T14:29:48.728Z,90.35
2017-12-05T14:32:16.218Z,90.05
2017-12-05T14:34:43.751Z,90.32
2017-12-05T14:37:11.244Z,90.21
2017-12-05T14:39:38.729Z,90.82
2017-12-05T14:42:06.256Z,91.26
2017-12-05T14:44:33.740Z,91.51
2017-12-05T14:47:01.267Z,91.77
2017-12-05T14:49:28.779Z,91.26
2017-12-05T14:51:56.275Z,91.72
2017-12-05T14:54:23.809Z,91.97
2017-12-05T14:56:51.319Z,92.08
2017-12-05T14:59:18.818Z,92.35
2017-12-05T15:01:46.410Z,92.24
2017-12-05T15:04:13.899Z,91.98
2017-12-05T15:06:41.397Z,92.32
2017-12-05T15:09:08.961Z,92.10
2017-12-05T15:11:36.423Z,92.13
2017-12-05T15:14:03.962Z,92.40
2017-12-05T15:16:31.450Z,92.09
2017-12-05T15:18:58.953Z,91.71
2017-12-05T15:21:26.485Z,91.56
2017-12-05T15:23:54.027Z,91.35
2017-12-05T15:26:21.524Z,91.32
2017-12-05T15:28:49.049Z,91.04
2017-12-05T15:31:16.605Z,90.91
2017-12-05T15:33:44.088Z,91.16
2017-12-05T15:36:11.739Z,91.14
2017-12-05T15:38:39.224Z,91.15
2017-12-05T15:41:06.739Z,90.64
2017-12-05T15:43:34.260Z,90.28
2017-12-05T15:46:01.859Z,90.17
2017-12-05T15:48:29.356Z,90.06
2017-12-05T15:50:56.882Z,89.20
2017-12-05T15:53:24.425Z,89.17
2017-12-05T15:55:51.920Z,89.20
2017-12-05T15:58:19.415Z,89.19
2017-12-05T16:00:46.949Z,88.94
2017-12-05T16:03:14.457Z,88.51
2017-12-05T16:05:41.944Z,88.17
2017-12-05T16:08:09.599Z,87.95
2017-12-05T16:10:37.084Z,87.93
2017-12-05T16:13:04.589Z,87.71
2017-12-05T16:15:32.128Z,87.88
2017-12-05T16:17:59.639Z,87.20
2017-12-05T16:20:27.134Z,87.00
2017-12-05T16:22:54.730Z,87.07
2017-12-05T16:25:22.292Z,86.73
2017-12-05T16:27:49.776Z,86.33
2017-12-05T16:30:17.296Z,86.62
2017-12-05T16:32:44.772Z,86.42
2017-12-05T16:35:12.275Z,85.92
2017-12-05T16:37:39.764Z,86.11
2017-12-05T16:40:07.339Z,85.82
2017-12-05T16:42:34.832Z,85.61
2017-12-05T16:45:02.324Z,85.80
2017-12-05T16:47:29.907Z,85.33
2017-12-05T16:49:57.399Z,85.40
2017-12-05T16:52:24.925Z,85.62
2017-12-05T16:54:52.499Z,84.91
2017-12-05T16:57:20.075Z,84.97
2017-12-05T16:59:47.595Z,84.87
2017-12-05T17:02:15.160Z,84.67
2017-12-05T17:04:42.728Z,84.64
2017-12-05T17:07:10.231Z,84.59
2017-12-05T17:09:37.765Z,84.63
2017-12-05T17:12:05.264Z,85.02
2017-12-05T17:14:32.749Z,84.90
2017-12-05T17:17:00.263Z,84.51
2017-12-05T17:19:27.762Z,84.54
2017-12-05T17:21:55.356Z,84.61
2017-12-05T17:24:22.855Z,84.83
2017-12-05T17:26:50.370Z,84.81
2017-12-05T17:29:17.887Z,84.51
2017-12-05T17:31:45.379Z,84.87
2017-12-05T17:34:12.868Z,84.71
2017-12-05T17:36:40.391Z,82.77
2017-12-05T17:39:07.876Z,82.68
2017-12-05T17:41:35.421Z,83.03
2017-12-05T17:44:02.955Z,83.52
2017-12-05T17:46:30.525Z,83.64
2017-12-05T17:48:58.023Z,83.36
2017-12-05T17:51:25.643Z,83.70
2017-12-05T17:53:53.132Z,83.91
2017-12-05T17:56:20.624Z,83.72
2017-12-05T17:58:48.155Z,83.52
2017-12-05T18:01:15.639Z,84.06
2017-12-05T18:03:43.121Z,84.13
2017-12-05T18:06:10.697Z,83.49
2017-12-05T18:08:38.187Z,83.48
2017-12-05T18:11:05.681Z,83.40
2017-12-05T18:13:33.260Z,83.19
2017-12-05T18:16:00.746Z,83.21
2017-12-05T18:18:28.280Z,83.21
2017-12-05T18:20:55.794Z,83.18
2017-12-05T18:23:23.285Z,82.93
2017-12-05T18:25:50.773Z,82.82
2017-12-05T18:28:18.291Z,82.60
2017-12-05T18:30:45.779Z,82.42
2017-12-05T18:33:13.331Z,82.71
2017-12-05T18:35:40.909Z,82.48
2017-12-05T18:38:08.403Z,81.78
2017-12-05T18:40:35.896Z,81.90
2017-12-05T18:43:03.434Z,82.18
2017-12-05T18:45:30.926Z,81.86
2017-12-05T18:47:58.413Z,81.59
2017-12-05T18:50:25.945Z,81.98
2017-12-05T18:52:53.698Z,81.40
2017-12-05T18:55:21.262Z,81.54
2017-12-05T18:57:48.784Z,81.61
2017-12-05T19:00:16.379Z,81.45
2017-12-05T19:02:43.883Z,81.78
2017-12-05T19:05:11.398Z,81.32
2017-12-05T19:07:38.891Z,80.80
2017-12-05T19:10:06.515Z,81.04
2017-12-05T19:12:34.073Z,80.88
2017-12-05T19:15:01.640Z,80.98
2017-12-05T19:17:29.192Z,80.89
2017-12-05T19:19:56.680Z,80.47
2017-12-05T19:22:24.227Z,80.50
2017-12-05T19:24:51.882Z,80.64
2017-12-05T19:27:19.449Z,80.89
2017-12-05T19:29:46.936Z,81.11
2017-12-05T19:32:14.455Z,80.66
2017-12-05T19:34:41.945Z,80.54
2017-12-05T19:37:09.446Z,80.85
2017-12-05T19:39:36.968Z,80.73
2017-12-05T19:42:04.463Z,80.67
2017-12-05T19:44:32.043Z,80.14
2017-12-05T19:46:59.596Z,79.91
2017-12-05T19:49:27.084Z,80.47
2017-12-05T19:51:54.595Z,80.04
2017-12-05T19:54:22.216Z,80.06
2017-12-05T19:56:49.699Z,79.83
2017-12-05T19:59:17.233Z,79.79
2017-12-05T20:01:44.871Z,80.18
2017-12-05T20:04:12.414Z,80.10
2017-12-05T20:06:39.917Z,80.14
2017-12-05T20:09:07.434Z,80.13
2017-12-05T20:11:34.924Z,80.60
2017-12-05T20:14:02.420Z,79.95
2017-12-05T20:16:29.954Z,80.26
2017-12-05T20:18:57.443Z,80.51
2017-12-05T20:21:24.939Z,80.14
2017-12-05T20:23:52.478Z,80.37
2017-12-05T20:26:19.975Z,80.60
2017-12-05T20:28:47.464Z,80.35
2017-12-05T20:31:15.024Z,80.59
2017-12-05T20:33:42.525Z,80.47
2017-12-05T20:36:10.012Z,80.90
2017-12-05T20:38:37.537Z,80.57
2017-12-05T20:41:05.019Z,80.79
2017-12-05T20:43:32.518Z,80.65
2017-12-05T20:46:00.055Z,80.39
2017-12-05T20:48:27.545Z,80.59
2017-12-05T20:50:55.033Z,81.06
2017-12-05T20:53:22.572Z,80.35
2017-12-05T20:55:50.063Z,80.42
2017-12-05T20:58:17.552Z,80.88
2017-12-05T21:00:45.087Z,81.13
2017-12-05T21:03:12.579Z,80.38
2017-12-05T21:05:40.068Z,80.43
2017-12-05T21:08:07.594Z,80.47
2017-12-05T21:10:35.083Z,80.76
2017-12-05T21:13:02.566Z,80.46
2017-12-05T21:15:30.114Z,79.87
2017-12-05T21:17:57.607Z,79.93
2017-12-05T21:20:25.132Z,79.86
2017-12-05T21:22:52.660Z,80.03
2017-12-05T21:25:20.149Z,80.03
2017-12-05T21:27:47.631Z,80.54
2017-12-05T21:30:15.145Z,80.83
2017-12-05T21:32:42.644Z,80.84
2017-12-05T21:35:10.164Z,80.92
2017-12-05T21:37:37.723Z,81.01
2017-12-05T21:40:05.208Z,81.53
2017-12-05T21:42:32.702Z,80.88
2017-12-05T21:45:00.237Z,81.62
2017-12-05T21:47:27.739Z,81.73
2017-12-05T21:49:55.332Z,80.98
2017-12-05T21:52:22.857Z,80.50
2017-12-05T21:54:50.458Z,80.93
2017-12-05T21:57:17.943Z,80.61
2017-12-05T21:59:45.451Z,79.93
2017-12-05T22:02:12.943Z,79.97
2017-12-05T22:04:40.487Z,80.21
2017-12-05T22:07:07.975Z,80.11
2017-12-05T22:09:35.476Z,80.35
2017-12-05T22:12:03.018Z,80.92
2017-12-05T22:14:30.510Z,80.52
2017-12-05T22:16:58.000Z,79.97
2017-12-05T22:19:25.511Z,80.40
2017-12-05T22:21:53.007Z,80.29
2017-12-05T22:24:20.496Z,80.70
2017-12-05T22:26:48.006Z,80.52
2017-12-05T22:29:15.499Z,80.96
2017-12-05T22:31:43.032Z,81.05
2017-12-05T22:34:10.526Z,81.19
2017-12-05T22:36:38.036Z,80.74
2017-12-05T22:39:05.567Z,81.18
2017-12-05T22:41:33.048Z,81.06
2017-12-05T22:44:00.536Z,81.50
2017-12-05T22:46:28.063Z,81.15
2017-12-05T22:48:55.554Z,81.61
2017-12-05T22:51:23.040Z,81.33
2017-12-05T22:53:50.566Z,81.63
2017-12-05T22:56:18.081Z,81.72
2017-12-05T22:58:45.564Z,81.71
2017-12-05T23:01:13.109Z,81.87
2017-12-05T23:03:40.618Z,82.31
2017-12-05T23:06:08.107Z,82.79
2017-12-05T23:08:35.624Z,82.95
2017-12-05T23:11:03.115Z,82.96
2017-12-05T23:13:30.605Z,82.67
2017-12-05T23:15:58.128Z,82.33
2017-12-05T23:18:25.618Z,82.66
2017-12-05T23:20:53.104Z,82.94
2017-12-05T23:23:20.639Z,83.28
2017-12-05T23:25:48.133Z,83.50
2017-12-05T23:28:15.624Z,83.74
2017-12-05T23:30:43.219Z,84.29
2017-12-05T23:33:10.750Z,84.32
2017-12-05T23:35:38.251Z,84.14
2017-12-05T23:38:05.788Z,84.03
2017-12-05T23:40:33.327Z,84.13
2017-12-05T23:43:00.894Z,83.35
2017-12-05T23:45:28.399Z,83.28
2017-12-05T23:47:55.884Z,83.38
2017-12-05T23:50:23.405Z,83.44
2017-12-05T23:52:50.920Z,83.15
2017-12-05T23:55:18.399Z,83.31
2017-12-05T23:57:46.047Z,82.39
